Time;durP1;ratioP1;P1;durP2;ratioP2;P2;SDS_P1;SDS_P2;PMS_P1;PMS_P2;Temp;Humidity;BMP_temperature;BMP_pressure;BME280_temperature;BME280_humidity;BME280_pressure;Samples;Min_cycle;Max_cycle;Signal;HPM_P1;HPM_P2
2022/10/28 00:00:24;;;;;;;10.63;4.57;;;19.90;99.90;;;;;;4994464;28;20168;-76
2022/10/28 00:02:50;;;;;;;11.05;4.13;;;19.90;99.90;;;;;;4994761;28;20178;-76
2022/10/28 00:05:15;;;;;;;8.20;4.40;;;19.90;99.90;;;;;;4994588;28;20179;-76
2022/10/28 00:07:41;;;;;;;11.98;4.95;;;19.90;99.90;;;;;;4994791;28;20237;-75
2022/10/28 00:10:07;;;;;;;7.35;4.40;;;19.90;99.90;;;;;;4994698;28;20199;-76
2022/10/28 00:12:37;;;;;;;12.35;4.40;;;19.90;99.90;;;;;;4994524;28;20211;-76
2022/10/28 00:15:04;;;;;;;12.25;4.53;;;19.90;99.90;;;;;;4994462;28;20650;-77
2022/10/28 00:17:29;;;;;;;15.85;4.75;;;19.90;99.90;;;;;;4993259;28;20175;-76
2022/10/28 00:19:55;;;;;;;10.20;4.25;;;19.90;99.90;;;;;;4994473;28;20542;-76
2022/10/28 00:22:20;;;;;;;8.60;4.20;;;19.90;99.90;;;;;;4994317;28;20601;-75
2022/10/28 00:24:46;;;;;;;9.68;4.40;;;19.90;99.90;;;;;;4993843;28;20182;-76
2022/10/28 00:27:12;;;;;;;9.77;4.22;;;19.90;99.90;;;;;;4994160;28;20202;-77
2022/10/28 00:29:37;;;;;;;13.38;4.57;;;20.00;99.90;;;;;;4993844;28;20259;-75
2022/10/28 00:32:03;;;;;;;11.40;4.43;;;20.00;99.90;;;;;;4994177;28;20218;-76
2022/10/28 00:34:28;;;;;;;10.98;4.70;;;20.00;99.90;;;;;;4994322;28;20635;-75
2022/10/28 00:36:54;;;;;;;10.88;4.22;;;20.00;99.90;;;;;;4994201;28;20694;-76
2022/10/28 00:39:23;;;;;;;13.52;4.85;;;20.00;99.90;;;;;;4994286;28;20548;-76
2022/10/28 00:41:51;;;;;;;9.13;4.10;;;20.10;99.90;;;;;;4994111;28;20171;-77
2022/10/28 00:44:36;;;;;;;9.75;4.32;;;20.00;99.90;;;;;;4993978;28;20549;-76
2022/10/28 00:47:02;;;;;;;11.25;4.68;;;20.00;99.90;;;;;;4994126;28;20163;-75
2022/10/28 00:49:31;;;;;;;10.73;4.40;;;20.00;99.90;;;;;;4994037;28;20167;-75
2022/10/28 00:52:00;;;;;;;10.48;4.10;;;19.90;99.90;;;;;;4993747;28;20215;-76
2022/10/28 00:54:26;;;;;;;10.95;4.90;;;19.90;99.90;;;;;;4994053;28;20242;-76
2022/10/28 00:56:55;;;;;;;7.85;4.18;;;19.90;99.90;;;;;;4993499;28;20179;-76
2022/10/28 00:59:25;;;;;;;9.63;4.35;;;19.90;99.90;;;;;;4994126;28;20175;-76
2022/10/28 01:01:51;;;;;;;10.38;4.57;;;19.90;99.90;;;;;;4993902;28;20171;-76
2022/10/28 01:04:18;;;;;;;10.60;4.63;;;20.00;99.90;;;;;;4993956;28;20181;-76
2022/10/28 01:06:46;;;;;;;4.97;3.80;;;19.90;99.90;;;;;;4993896;28;20202;-76
2022/10/28 01:09:11;;;;;;;7.25;4.25;;;19.90;99.90;;;;;;4993879;28;20163;-75
2022/10/28 01:12:14;;;;;;;12.63;4.40;;;19.90;99.90;;;;;;4993276;28;20207;-75
2022/10/28 01:15:16;;;;;;;12.70;4.63;;;19.90;99.90;;;;;;4993974;28;20251;-76
2022/10/28 01:17:51;;;;;;;11.55;4.60;;;19.90;99.90;;;;;;4993844;28;20159;-75
2022/10/28 01:20:32;;;;;;;11.65;4.50;;;19.80;99.90;;;;;;4993879;28;20233;-75
2022/10/28 01:23:25;;;;;;;9.48;4.50;;;19.90;99.90;;;;;;4993662;28;20639;-75
2022/10/28 01:26:21;;;;;;;8.95;4.28;;;19.90;99.90;;;;;;4993434;28;20163;-76
2022/10/28 01:29:05;;;;;;;11.20;4.30;;;19.80;99.90;;;;;;4993728;28;20168;-75
2022/10/28 01:32:04;;;;;;;10.85;4.00;;;19.80;99.90;;;;;;4993567;28;20191;-76
2022/10/28 01:34:32;;;;;;;8.07;4.20;;;19.80;99.90;;;;;;4993584;28;20650;-76
2022/10/28 01:37:10;;;;;;;8.88;4.47;;;19.70;99.90;;;;;;4995186;28;20199;-75
2022/10/28 01:39:41;;;;;;;12.63;3.67;;;19.80;99.90;;;;;;4996081;28;20167;-76
2022/10/28 01:42:19;;;;;;;12.55;4.35;;;19.80;99.90;;;;;;4997106;28;20175;-75
2022/10/28 01:44:57;;;;;;;9.80;4.30;;;19.70;99.90;;;;;;4995890;28;20163;-76
2022/10/28 01:47:46;;;;;;;8.57;3.80;;;19.60;99.90;;;;;;4997310;28;20179;-76
2022/10/28 01:50:45;;;;;;;10.30;4.03;;;19.60;99.90;;;;;;4996948;28;20194;-76
2022/10/28 01:53:13;;;;;;;10.18;3.90;;;19.60;99.90;;;;;;4997042;28;20265;-75
2022/10/28 01:55:46;;;;;;;9.73;4.13;;;19.60;99.90;;;;;;4996834;28;20286;-75
2022/10/28 01:58:17;;;;;;;7.68;4.18;;;19.60;99.90;;;;;;4997039;28;20207;-76
2022/10/28 02:00:45;;;;;;;10.63;4.10;;;19.60;99.90;;;;;;4996971;28;20175;-75
2022/10/28 02:03:11;;;;;;;9.55;3.85;;;19.60;99.90;;;;;;4996968;28;20171;-75
2022/10/28 02:05:44;;;;;;;10.23;4.00;;;19.60;99.90;;;;;;4996961;28;20646;-75
2022/10/28 02:08:38;;;;;;;12.05;3.70;;;19.60;99.90;;;;;;4997077;28;20179;-75
2022/10/28 02:11:18;;;;;;;12.15;4.25;;;19.60;99.90;;;;;;4995683;28;20238;-75
2022/10/28 02:14:11;;;;;;;13.60;4.10;;;19.60;99.90;;;;;;4996741;28;20182;-75
2022/10/28 02:16:48;;;;;;;9.48;4.40;;;19.60;99.90;;;;;;4996801;28;20210;-76
2022/10/28 02:19:35;;;;;;;7.55;3.90;;;19.50;99.90;;;;;;4996684;28;20167;-75
2022/10/28 02:22:04;;;;;;;10.38;4.03;;;19.60;99.90;;;;;;4996532;28;20218;-75
2022/10/28 02:24:36;;;;;;;8.13;4.15;;;19.50;99.90;;;;;;4994921;28;20211;-75
2022/10/28 02:27:30;;;;;;;9.80;3.70;;;19.50;99.90;;;;;;4995250;28;20206;-75
2022/10/28 02:30:05;;;;;;;9.48;3.90;;;19.50;99.90;;;;;;4996157;28;20309;-75
2022/10/28 02:32:39;;;;;;;8.10;3.72;;;19.40;99.90;;;;;;4996351;28;20654;-75
2022/10/28 02:35:17;;;;;;;8.45;3.80;;;19.40;99.90;;;;;;4996429;28;20188;-75
2022/10/28 02:37:45;;;;;;;13.50;4.35;;;19.40;99.90;;;;;;4996406;28;20254;-75
2022/10/28 02:40:20;;;;;;;12.30;3.90;;;19.40;99.90;;;;;;4995739;28;20167;-75
2022/10/28 02:42:54;;;;;;;8.85;3.83;;;19.30;99.90;;;;;;4995969;28;20627;-75
2022/10/28 02:45:34;;;;;;;13.30;4.90;;;19.30;99.90;;;;;;4996133;28;20697;-75
2022/10/28 02:48:11;;;;;;;9.25;3.88;;;19.20;99.90;;;;;;4995080;28;20635;-76
2022/10/28 02:50:41;;;;;;;11.63;4.60;;;19.20;99.90;;;;;;4995948;28;20171;-76
2022/10/28 02:53:14;;;;;;;10.73;4.15;;;19.10;99.90;;;;;;4995547;28;20211;-75
2022/10/28 02:55:43;;;;;;;11.10;4.35;;;19.10;99.90;;;;;;4995742;28;20175;-75
2022/10/28 02:58:10;;;;;;;14.23;4.32;;;19.10;99.90;;;;;;4995817;28;20623;-75
2022/10/28 03:00:35;;;;;;;11.02;4.50;;;19.10;99.90;;;;;;4995959;28;20170;-76
2022/10/28 03:03:01;;;;;;;13.20;4.40;;;19.10;99.90;;;;;;4994491;28;20273;-75
2022/10/28 03:05:27;;;;;;;8.02;4.05;;;19.10;99.90;;;;;;4995915;28;20449;-76
2022/10/28 03:07:52;;;;;;;10.13;4.13;;;19.10;99.90;;;;;;4995259;28;20187;-76
2022/10/28 03:10:18;;;;;;;10.95;4.40;;;19.10;99.90;;;;;;4994372;28;20171;-76
2022/10/28 03:12:43;;;;;;;10.93;4.32;;;19.10;99.90;;;;;;4994301;28;20213;-76
2022/10/28 03:15:09;;;;;;;10.23;4.05;;;19.10;99.90;;;;;;4994145;28;20178;-76
2022/10/28 03:17:35;;;;;;;9.23;4.35;;;19.10;99.90;;;;;;4995416;28;20198;-75
2022/10/28 03:20:01;;;;;;;10.55;4.43;;;19.00;99.90;;;;;;4995273;28;20614;-75
2022/10/28 03:22:26;;;;;;;13.95;4.10;;;19.10;99.90;;;;;;4994599;28;20179;-75
2022/10/28 03:24:52;;;;;;;6.90;4.20;;;19.10;99.90;;;;;;4995211;28;20567;-75
2022/10/28 03:27:17;;;;;;;10.18;4.68;;;19.20;99.90;;;;;;4995614;28;20163;-76
2022/10/28 03:29:43;;;;;;;10.05;3.97;;;19.20;99.90;;;;;;4994989;28;20219;-75
2022/10/28 03:32:08;;;;;;;12.35;4.40;;;19.20;99.90;;;;;;4995182;28;20207;-76
2022/10/28 03:34:34;;;;;;;14.18;4.40;;;19.20;99.90;;;;;;4995045;28;20163;-76
2022/10/28 03:36:59;;;;;;;10.13;4.43;;;19.20;99.90;;;;;;4994885;28;20750;-76
2022/10/28 03:39:25;;;;;;;10.68;4.57;;;19.20;99.90;;;;;;4994820;28;20658;-76
2022/10/28 03:41:51;;;;;;;12.98;4.70;;;19.20;99.90;;;;;;4994955;28;20218;-76
2022/10/28 03:44:16;;;;;;;16.05;5.00;;;19.20;99.90;;;;;;4995155;28;20628;-74
2022/10/28 03:46:42;;;;;;;14.60;4.80;;;19.10;99.90;;;;;;4994429;28;20626;-74
2022/10/28 03:49:07;;;;;;;10.65;4.32;;;19.10;99.90;;;;;;4994756;28;20174;-75
2022/10/28 03:51:33;;;;;;;12.02;4.28;;;19.00;99.90;;;;;;4994215;28;20638;-76
2022/10/28 03:53:58;;;;;;;8.45;4.03;;;19.00;99.90;;;;;;4994253;28;20172;-75
2022/10/28 03:56:24;;;;;;;11.48;4.38;;;19.00;99.90;;;;;;4994873;28;20309;-75
2022/10/28 03:58:50;;;;;;;12.10;4.38;;;19.00;99.90;;;;;;4994361;28;20585;-75
2022/10/28 04:01:15;;;;;;;8.98;4.45;;;19.00;99.90;;;;;;4994280;28;20257;-75
2022/10/28 04:03:41;;;;;;;13.43;4.45;;;19.00;99.90;;;;;;4994144;28;20163;-75
2022/10/28 04:06:08;;;;;;;10.20;4.45;;;19.00;99.90;;;;;;4993985;28;20175;-76
2022/10/28 04:08:35;;;;;;;7.45;4.70;;;19.00;99.90;;;;;;4993939;28;20175;-75
2022/10/28 04:11:01;;;;;;;11.93;4.25;;;19.00;99.90;;;;;;4994075;28;20245;-75
2022/10/28 04:13:26;;;;;;;10.90;4.25;;;19.00;99.90;;;;;;4993513;28;20671;-75
2022/10/28 04:15:52;;;;;;;11.45;4.82;;;19.00;99.90;;;;;;4994170;28;20261;-75
2022/10/28 04:18:17;;;;;;;11.20;4.15;;;19.10;99.90;;;;;;4994106;28;20218;-75
2022/10/28 04:20:45;;;;;;;10.10;4.20;;;19.10;99.90;;;;;;4993667;28;20238;-75
2022/10/28 04:23:15;;;;;;;10.30;4.28;;;19.10;99.90;;;;;;4993830;28;20171;-75
2022/10/28 04:25:41;;;;;;;11.40;4.80;;;19.00;99.90;;;;;;4993953;28;20186;-75
2022/10/28 04:28:07;;;;;;;11.95;4.60;;;19.00;99.90;;;;;;4993882;28;20203;-75
2022/10/28 04:30:32;;;;;;;14.10;4.57;;;18.90;99.90;;;;;;4993720;28;20714;-75
2022/10/28 04:32:58;;;;;;;9.65;4.82;;;18.90;99.90;;;;;;4992595;28;20206;-75
2022/10/28 04:35:24;;;;;;;10.55;4.63;;;19.00;99.90;;;;;;4993404;28;20689;-75
2022/10/28 04:37:49;;;;;;;9.82;4.78;;;19.00;99.90;;;;;;4993379;28;20184;-75
2022/10/28 04:40:15;;;;;;;10.10;4.38;;;19.00;99.90;;;;;;4992559;28;20225;-74
2022/10/28 04:42:41;;;;;;;12.57;4.75;;;19.00;99.90;;;;;;4993509;28;20175;-75
2022/10/28 04:45:07;;;;;;;15.05;4.82;;;19.00;99.90;;;;;;4993651;28;20167;-74
2022/10/28 04:47:32;;;;;;;15.50;4.88;;;19.10;99.90;;;;;;4993324;28;20171;-76
2022/10/28 04:49:58;;;;;;;11.57;5.18;;;19.10;99.90;;;;;;4991613;28;20171;-76
2022/10/28 04:52:24;;;;;;;18.25;4.78;;;19.00;99.90;;;;;;4992039;28;20218;-75
2022/10/28 04:54:49;;;;;;;10.93;4.90;;;19.00;99.90;;;;;;4992331;28;20517;-75
2022/10/28 04:57:15;;;;;;;11.27;4.30;;;19.00;99.90;;;;;;4993223;28;20181;-76
2022/10/28 04:59:40;;;;;;;10.63;4.78;;;19.00;99.90;;;;;;4993173;28;20168;-75
2022/10/28 05:02:06;;;;;;;14.82;4.63;;;18.90;99.90;;;;;;4993424;28;20257;-75
2022/10/28 05:04:31;;;;;;;13.98;4.53;;;18.90;99.90;;;;;;4993372;28;20221;-76
2022/10/28 05:06:57;;;;;;;11.82;4.85;;;18.90;99.90;;;;;;4992804;28;20532;-76
2022/10/28 05:09:23;;;;;;;8.70;4.22;;;18.90;99.90;;;;;;4993069;28;20246;-75
2022/10/28 05:11:48;;;;;;;15.95;4.40;;;18.90;99.90;;;;;;4994515;28;20206;-75
2022/10/28 05:14:14;;;;;;;12.57;4.40;;;18.90;99.90;;;;;;4997278;28;20186;-76
2022/10/28 05:16:40;;;;;;;9.23;4.43;;;18.90;99.90;;;;;;4996820;28;20650;-76
2022/10/28 05:19:05;;;;;;;13.23;4.50;;;18.90;99.90;;;;;;4996730;28;20171;-75
2022/10/28 05:21:31;;;;;;;15.48;5.10;;;18.90;99.90;;;;;;4997083;28;20568;-76
2022/10/28 05:23:56;;;;;;;11.48;4.78;;;18.90;99.90;;;;;;4995804;28;20250;-75
2022/10/28 05:26:22;;;;;;;8.55;4.70;;;18.90;99.90;;;;;;4995455;28;20653;-76
2022/10/28 05:28:49;;;;;;;13.35;4.30;;;18.80;99.90;;;;;;4996984;28;20530;-76
2022/10/28 05:31:15;;;;;;;10.57;4.70;;;18.80;99.90;;;;;;4996931;28;20227;-76
2022/10/28 05:33:41;;;;;;;16.33;5.20;;;18.80;99.90;;;;;;4996315;28;20663;-76
2022/10/28 05:36:06;;;;;;;10.18;4.57;;;18.80;99.90;;;;;;4996628;28;20175;-75
2022/10/28 05:38:32;;;;;;;18.17;4.93;;;18.80;99.90;;;;;;4996324;28;20186;-75
2022/10/28 05:40:58;;;;;;;16.38;5.30;;;18.80;99.90;;;;;;4996874;28;20243;-76
2022/10/28 05:43:23;;;;;;;19.45;5.45;;;18.80;99.90;;;;;;4996808;28;20179;-76
2022/10/28 05:45:53;;;;;;;11.13;5.07;;;18.80;99.90;;;;;;4996946;28;20171;-76
2022/10/28 05:48:18;;;;;;;13.15;4.97;;;18.80;99.90;;;;;;4995954;28;20220;-75
2022/10/28 05:50:44;;;;;;;14.82;5.68;;;18.80;99.90;;;;;;4995949;28;20172;-75
2022/10/28 05:53:09;;;;;;;16.15;5.38;;;18.80;99.90;;;;;;4994822;28;20746;-75
2022/10/28 05:55:35;;;;;;;10.77;4.72;;;18.80;99.90;;;;;;4995217;28;20246;-76
2022/10/28 05:58:01;;;;;;;7.53;4.60;;;18.80;99.90;;;;;;4995789;28;20254;-75
2022/10/28 06:00:28;;;;;;;13.60;4.90;;;18.80;99.90;;;;;;4995546;28;20171;-75
2022/10/28 06:03:08;;;;;;;13.68;4.97;;;18.80;99.90;;;;;;4995318;28;20172;-75
2022/10/28 06:05:34;;;;;;;13.65;5.18;;;18.80;99.90;;;;;;4995698;28;20534;-75
2022/10/28 06:08:00;;;;;;;15.23;5.00;;;18.80;99.90;;;;;;4996292;28;20266;-75
2022/10/28 06:10:26;;;;;;;12.82;5.57;;;18.70;99.90;;;;;;4995373;28;20171;-75
2022/10/28 06:12:54;;;;;;;15.57;5.47;;;18.70;99.90;;;;;;4995093;28;20207;-76
2022/10/28 06:15:20;;;;;;;15.70;5.28;;;18.70;99.90;;;;;;4995769;28;20273;-77
2022/10/28 06:17:50;;;;;;;13.05;5.70;;;18.70;99.90;;;;;;4995429;28;20262;-76
2022/10/28 06:20:17;;;;;;;15.68;5.50;;;18.80;99.90;;;;;;4996046;28;20660;-76
2022/10/28 06:22:50;;;;;;;17.73;5.55;;;18.70;99.90;;;;;;4994116;28;20211;-76
2022/10/28 06:25:16;;;;;;;15.32;5.35;;;18.70;99.90;;;;;;4995720;28;20563;-76
2022/10/28 06:27:41;;;;;;;14.20;5.30;;;18.70;99.90;;;;;;4995250;28;20175;-76
2022/10/28 06:30:07;;;;;;;15.77;5.75;;;18.70;99.90;;;;;;4994858;28;20365;-75
2022/10/28 06:32:33;;;;;;;14.30;5.25;;;18.80;99.90;;;;;;4994885;28;20693;-76
2022/10/28 06:34:59;;;;;;;10.38;5.18;;;18.80;99.90;;;;;;4995799;28;20258;-76
2022/10/28 06:37:24;;;;;;;16.80;5.70;;;18.70;99.90;;;;;;4994709;28;20615;-76
2022/10/28 06:39:51;;;;;;;15.95;5.57;;;18.80;99.90;;;;;;4995935;28;20247;-76
2022/10/28 06:42:17;;;;;;;15.23;5.60;;;18.80;99.90;;;;;;4989303;28;20203;-74
2022/10/28 06:44:43;;;;;;;22.38;5.95;;;18.80;99.90;;;;;;4976121;28;20493;-75
2022/10/28 06:47:08;;;;;;;17.35;6.07;;;18.90;99.90;;;;;;4975447;28;20179;-75
2022/10/28 06:49:34;;;;;;;17.27;5.80;;;18.90;99.90;;;;;;4987920;28;20175;-76
2022/10/28 06:51:59;;;;;;;12.27;5.00;;;19.00;99.90;;;;;;4994923;28;20714;-75
2022/10/28 06:54:25;;;;;;;15.02;5.25;;;19.10;99.90;;;;;;4994651;28;20175;-75
2022/10/28 06:56:51;;;;;;;18.15;5.43;;;19.20;99.90;;;;;;4994343;28;20248;-75
2022/10/28 06:59:16;;;;;;;19.25;5.72;;;19.30;99.90;;;;;;4994617;28;20584;-75
2022/10/28 07:01:42;;;;;;;15.48;5.50;;;19.40;99.90;;;;;;4983212;28;20180;-75
2022/10/28 07:04:11;;;;;;;20.42;6.13;;;19.50;99.90;;;;;;4975370;28;20186;-75
2022/10/28 07:06:38;;;;;;;11.45;5.72;;;19.60;99.90;;;;;;4975563;28;20184;-75
2022/10/28 07:09:04;;;;;;;13.32;5.63;;;19.70;99.90;;;;;;4975592;28;20651;-75
2022/10/28 07:11:29;;;;;;;13.77;5.20;;;19.90;99.90;;;;;;4974782;28;20176;-76
2022/10/28 07:13:55;;;;;;;15.43;5.55;;;20.10;99.90;;;;;;4974618;28;20184;-75
2022/10/28 07:16:20;;;;;;;14.65;5.25;;;20.30;99.90;;;;;;4975297;28;20176;-75
2022/10/28 07:18:46;;;;;;;13.00;5.07;;;20.50;99.90;;;;;;4975151;28;20195;-76
2022/10/28 07:21:13;;;;;;;15.75;5.38;;;20.70;99.90;;;;;;4974865;28;20352;-76
2022/10/28 07:23:38;;;;;;;19.55;5.40;;;20.80;99.90;;;;;;4975072;28;20168;-75
2022/10/28 07:26:04;;;;;;;17.60;5.40;;;20.90;99.90;;;;;;4973874;28;20175;-73
2022/10/28 07:28:30;;;;;;;13.90;5.10;;;21.10;99.90;;;;;;4985409;28;20191;-73
2022/10/28 07:31:00;;;;;;;11.60;4.65;;;21.20;99.90;;;;;;4993272;28;20281;-73
2022/10/28 07:33:26;;;;;;;14.02;5.10;;;21.50;99.90;;;;;;4993632;28;20215;-72
2022/10/28 07:35:51;;;;;;;14.80;5.00;;;21.90;99.90;;;;;;4993092;28;20171;-73
2022/10/28 07:38:17;;;;;;;17.63;5.20;;;22.50;99.90;;;;;;4994277;28;20585;-76
2022/10/28 07:40:42;;;;;;;11.77;4.40;;;22.70;99.90;;;;;;4993918;28;20173;-76
2022/10/28 07:43:08;;;;;;;16.30;4.95;;;22.80;99.90;;;;;;4993450;28;20171;-77
2022/10/28 07:45:34;;;;;;;14.75;5.22;;;23.00;99.90;;;;;;4994765;28;20282;-76
2022/10/28 07:48:00;;;;;;;12.75;4.93;;;23.10;99.90;;;;;;4993836;28;20273;-77
2022/10/28 07:50:26;;;;;;;15.50;5.75;;;23.00;99.90;;;;;;4993751;28;20190;-75
2022/10/28 07:52:51;;;;;;;16.40;5.22;;;23.10;99.90;;;;;;4993738;28;20745;-75
2022/10/28 07:55:20;;;;;;;9.98;4.80;;;23.50;99.90;;;;;;4993712;28;20195;-76
2022/10/28 07:57:46;;;;;;;12.18;5.10;;;23.40;99.90;;;;;;4993507;28;20258;-75
2022/10/28 08:00:12;;;;;;;17.83;5.38;;;23.20;99.90;;;;;;4993562;28;20305;-75
2022/10/28 08:02:38;;;;;;;14.95;5.22;;;22.80;99.90;;;;;;4994075;28;20175;-77
2022/10/28 08:05:04;;;;;;;14.60;5.35;;;22.50;99.90;;;;;;4993501;28;20314;-75
2022/10/28 08:07:30;;;;;;;17.33;5.13;;;22.30;99.90;;;;;;4992513;28;20262;-75
2022/10/28 08:09:57;;;;;;;12.65;4.93;;;22.40;99.90;;;;;;4993925;28;20195;-76
2022/10/28 08:12:22;;;;;;;15.57;5.10;;;22.50;99.90;;;;;;4993039;28;20311;-76
2022/10/28 08:14:48;;;;;;;19.95;5.40;;;22.60;99.90;;;;;;4993732;28;20176;-75
2022/10/28 08:17:14;;;;;;;15.95;5.32;;;22.50;99.90;;;;;;4993798;28;20509;-76
2022/10/28 08:19:39;;;;;;;17.55;5.43;;;22.50;99.90;;;;;;4993638;28;20175;-76
2022/10/28 08:22:06;;;;;;;12.13;5.57;;;22.30;99.90;;;;;;4993780;28;20195;-75
2022/10/28 08:24:31;;;;;;;12.48;5.22;;;22.10;99.90;;;;;;4993788;28;20178;-75
2022/10/28 08:26:57;;;;;;;16.02;5.45;;;22.10;99.90;;;;;;4992745;28;20167;-76
2022/10/28 08:29:22;;;;;;;18.55;5.57;;;22.20;99.90;;;;;;4993629;28;20186;-76
2022/10/28 08:31:48;;;;;;;13.07;5.22;;;22.20;99.90;;;;;;4999042;28;20249;-73
2022/10/28 08:34:13;;;;;;;13.45;5.22;;;22.30;99.90;;;;;;5003816;28;20186;-74
2022/10/28 08:36:39;;;;;;;19.67;5.70;;;22.60;99.90;;;;;;5005316;28;20705;-74
2022/10/28 08:39:05;;;;;;;15.60;5.28;;;22.60;99.90;;;;;;4996205;28;20171;-75
2022/10/28 08:41:34;;;;;;;19.50;5.72;;;22.50;99.90;;;;;;5010121;28;20171;-74
2022/10/28 08:44:41;;;;;;;14.55;5.65;;;22.30;99.90;;;;;;5004947;28;20266;-76
2022/10/28 08:47:18;;;;;;;13.15;5.03;;;22.10;99.90;;;;;;5001636;28;20174;-77
2022/10/28 08:49:47;;;;;;;15.57;5.53;;;22.00;99.90;;;;;;4985569;28;20670;-75
2022/10/28 08:52:41;;;;;;;11.68;5.47;;;22.00;99.90;;;;;;5000885;28;20232;-75
2022/10/28 08:55:19;;;;;;;13.77;4.97;;;22.00;99.90;;;;;;4999343;28;20183;-75
2022/10/28 08:58:03;;;;;;;12.30;5.20;;;22.80;99.90;;;;;;4991532;28;20647;-77
2022/10/28 09:00:32;;;;;;;16.63;5.30;;;23.70;99.90;;;;;;4986804;28;20190;-77
2022/10/28 09:03:21;;;;;;;11.85;4.85;;;24.60;99.90;;;;;;5004125;28;20166;-76
2022/10/28 09:05:51;;;;;;;11.60;4.72;;;25.80;98.70;;;;;;4995804;28;20221;-76
2022/10/28 09:08:23;;;;;;;12.65;4.40;;;26.50;99.90;;;;;;4994539;28;20225;-76
2022/10/28 09:11:10;;;;;;;16.15;5.60;;;27.20;48.70;;;;;;5002228;28;20182;-76
2022/10/28 09:14:00;;;;;;;11.13;4.93;;;27.60;1.00;;;;;;5007996;28;20202;-75
2022/10/28 09:16:45;;;;;;;16.48;5.70;;;27.60;1.00;;;;;;4985829;28;20175;-75
2022/10/28 09:19:45;;;;;;;13.40;4.75;;;28.10;1.00;;;;;;5012003;28;20170;-76
2022/10/28 09:22:31;;;;;;;13.40;4.90;;;27.90;1.00;;;;;;4981434;28;20225;-76
2022/10/28 09:25:05;;;;;;;14.00;5.63;;;27.90;1.00;;;;;;4997908;28;20183;-77
2022/10/28 09:27:59;;;;;;;11.43;4.78;;;27.90;1.00;;;;;;5006869;28;20175;-76
2022/10/28 09:30:49;;;;;;;12.35;4.40;;;28.00;1.00;;;;;;4984094;28;20218;-77
2022/10/28 09:33:56;;;;;;;13.45;4.78;;;27.80;1.00;;;;;;4997780;28;20245;-76
2022/10/28 09:36:32;;;;;;;11.43;4.88;;;28.20;1.00;;;;;;4977356;28;20179;-76
2022/10/28 09:39:00;;;;;;;15.02;5.53;;;28.40;1.00;;;;;;4986463;28;20337;-76
2022/10/28 09:41:39;;;;;;;13.32;4.78;;;28.30;1.00;;;;;;5006416;28;20175;-76
2022/10/28 09:44:05;;;;;;;17.45;6.22;;;28.10;1.00;;;;;;4995798;28;20171;-76
2022/10/28 09:46:31;;;;;;;15.05;4.95;;;28.00;1.00;;;;;;5004581;28;20179;-76
2022/10/28 09:49:02;;;;;;;13.10;5.32;;;28.20;1.00;;;;;;5002493;28;20247;-77
2022/10/28 09:51:54;;;;;;;8.13;4.57;;;28.50;1.00;;;;;;4995377;28;20666;-76
2022/10/28 09:54:32;;;;;;;14.32;5.47;;;28.30;99.90;;;;;;4982962;28;20591;-76
2022/10/28 09:56:57;;;;;;;17.92;5.45;;;28.00;1.00;;;;;;5012382;28;20175;-76
2022/10/28 09:59:23;;;;;;;9.75;5.05;;;28.00;1.00;;;;;;5001456;28;20178;-77
2022/10/28 10:01:49;;;;;;;17.73;5.80;;;28.10;1.00;;;;;;5011421;28;20186;-77
2022/10/28 10:04:26;;;;;;;14.55;5.72;;;28.40;99.90;;;;;;5000380;28;20634;-77
2022/10/28 10:07:07;;;;;;;10.85;5.07;;;29.10;99.90;;;;;;5005643;28;20754;-75
2022/10/28 10:09:34;;;;;;;12.40;5.07;;;28.70;99.90;;;;;;4992505;28;20179;-77
2022/10/28 10:12:06;;;;;;;13.27;4.72;;;28.40;99.90;;;;;;4974108;28;20217;-76
2022/10/28 10:14:58;;;;;;;11.85;5.13;;;28.60;99.90;;;;;;4975626;28;20612;-76
2022/10/28 10:17:39;;;;;;;15.25;4.78;;;28.60;99.90;;;;;;4972741;28;20659;-77
2022/10/28 10:20:11;;;;;;;14.88;4.47;;;28.60;99.90;;;;;;4976235;28;20188;-78
2022/10/28 10:22:42;;;;;;;12.32;5.07;;;27.90;99.90;;;;;;4976883;28;20174;-78
2022/10/28 10:25:17;;;;;;;19.88;5.55;;;26.90;1.00;;;;;;4975228;28;20176;-78
2022/10/28 10:27:50;;;;;;;22.50;5.60;;;26.40;1.00;;;;;;4975693;28;20179;-76
2022/10/28 10:30:21;;;;;;;17.63;5.28;;;26.20;1.00;;;;;;4976567;28;20235;-78
2022/10/28 10:32:47;;;;;;;16.83;5.20;;;26.40;1.00;;;;;;4976174;28;20226;-77
2022/10/28 10:35:30;;;;;;;15.60;4.97;;;26.90;1.00;;;;;;4976531;28;20174;-78
2022/10/28 10:38:00;;;;;;;16.67;5.30;;;27.50;1.00;;;;;;4985593;28;20175;-77
2022/10/28 10:40:35;;;;;;;14.13;5.15;;;27.00;1.00;;;;;;4995561;28;20170;-77
2022/10/28 10:43:16;;;;;;;12.63;4.57;;;27.00;1.00;;;;;;4992627;28;20174;-78
2022/10/28 10:46:16;;;;;;;16.23;4.50;;;26.90;1.00;;;;;;4991317;28;20246;-70
2022/10/28 10:48:43;;;;;;;14.10;4.63;;;27.20;1.00;;;;;;4992513;28;20643;-72
2022/10/28 10:51:20;;;;;;;15.18;4.97;;;27.50;99.90;;;;;;4995140;28;20175;-72
2022/10/28 10:53:48;;;;;;;14.75;4.72;;;27.50;99.90;;;;;;4995177;28;20207;-71
2022/10/28 10:56:34;;;;;;;12.75;4.38;;;27.20;1.00;;;;;;4995113;28;20195;-72
2022/10/28 10:59:03;;;;;;;17.58;5.00;;;27.30;99.90;;;;;;4994873;28;20198;-72
2022/10/28 11:01:35;;;;;;;13.43;4.65;;;26.80;1.00;;;;;;4994701;28;20168;-72
2022/10/28 11:04:06;;;;;;;11.15;3.90;;;26.60;1.00;;;;;;4994046;28;20175;-72
2022/10/28 11:06:36;;;;;;;15.50;4.80;;;26.40;1.00;;;;;;4994289;28;20610;-71
2022/10/28 11:09:05;;;;;;;12.60;4.30;;;26.70;1.00;;;;;;4994003;28;20295;-72
2022/10/28 11:11:36;;;;;;;10.82;4.68;;;26.60;1.00;;;;;;4993526;28;20168;-70
2022/10/28 11:14:09;;;;;;;17.02;4.80;;;26.60;1.00;;;;;;4995030;28;20187;-70
2022/10/28 11:16:54;;;;;;;15.13;5.15;;;26.70;1.00;;;;;;4993692;28;20194;-69
2022/10/28 11:19:36;;;;;;;12.73;4.60;;;27.50;1.00;;;;;;4994709;28;20183;-72
2022/10/28 11:22:44;;;;;;;13.25;4.55;;;27.50;1.00;;;;;;4993059;28;20229;-69
2022/10/28 11:25:38;;;;;;;13.90;5.10;;;27.50;1.00;;;;;;4993685;28;20183;-71
2022/10/28 11:28:35;;;;;;;18.45;5.18;;;27.50;1.00;;;;;;4990620;28;20541;-68
2022/10/28 11:31:37;;;;;;;15.45;5.03;;;27.40;1.00;;;;;;4993271;28;20659;-71
2022/10/28 11:34:15;;;;;;;8.65;4.00;;;27.30;1.00;;;;;;4994707;28;20194;-72
2022/10/28 11:36:52;;;;;;;11.50;4.00;;;26.90;1.00;;;;;;4993986;28;20286;-71
2022/10/28 11:39:28;;;;;;;13.32;5.05;;;26.60;1.00;;;;;;4994274;28;20234;-69
2022/10/28 11:42:24;;;;;;;12.10;4.80;;;26.70;1.00;;;;;;4993178;28;20264;-71
2022/10/28 11:45:27;;;;;;;10.90;4.38;;;26.70;1.00;;;;;;4993809;28;20171;-69
2022/10/28 11:48:11;;;;;;;14.77;4.88;;;26.40;1.00;;;;;;4993281;28;20287;-71
2022/10/28 11:50:46;;;;;;;10.68;4.43;;;26.70;1.00;;;;;;4992271;28;20171;-72
2022/10/28 11:53:24;;;;;;;13.52;4.38;;;26.70;1.00;;;;;;4991181;28;20214;-72
2022/10/28 11:55:59;;;;;;;7.88;4.32;;;26.30;1.00;;;;;;4993385;28;20185;-70
2022/10/28 11:58:48;;;;;;;13.25;4.78;;;26.30;1.00;;;;;;4992565;28;20237;-71
2022/10/28 12:01:46;;;;;;;14.00;4.70;;;25.70;99.90;;;;;;4983436;28;20253;-71
2022/10/28 12:04:23;;;;;;;11.43;4.30;;;25.30;1.00;;;;;;4969861;28;20186;-70
2022/10/28 12:07:09;;;;;;;12.50;4.20;;;25.20;1.00;;;;;;4992278;28;20179;-70
2022/10/28 12:10:00;;;;;;;11.57;4.40;;;25.20;1.00;;;;;;4993522;28;20270;-71
2022/10/28 12:12:42;;;;;;;12.48;4.70;;;24.90;1.00;;;;;;4990227;28;20230;-69
2022/10/28 12:15:39;;;;;;;13.85;4.35;;;25.00;1.00;;;;;;4994224;28;20258;-70
2022/10/28 12:18:20;;;;;;;15.20;4.10;;;25.10;99.90;;;;;;4993822;28;20179;-70
2022/10/28 12:21:25;;;;;;;15.77;4.57;;;25.00;1.00;;;;;;4993461;28;20191;-71
2022/10/28 12:23:53;;;;;;;12.07;4.40;;;24.90;1.00;;;;;;4986059;28;20183;-70
2022/10/28 12:26:23;;;;;;;13.93;5.25;;;24.80;99.90;;;;;;4993602;28;20262;-70
2022/10/28 12:28:53;;;;;;;12.88;5.07;;;24.60;1.00;;;;;;4993254;28;20237;-70
2022/10/28 12:31:44;;;;;;;12.18;4.65;;;24.20;85.20;;;;;;4993594;28;20265;-70
2022/10/28 12:34:14;;;;;;;13.55;4.50;;;24.20;99.90;;;;;;4992974;28;20253;-70
2022/10/28 12:36:46;;;;;;;10.85;4.30;;;24.20;1.00;;;;;;4993252;28;20179;-70
2022/10/28 12:39:30;;;;;;;8.82;3.80;;;24.30;99.90;;;;;;4991965;28;20179;-70
2022/10/28 12:42:04;;;;;;;6.57;3.85;;;24.30;1.00;;;;;;4974240;28;20671;-72
2022/10/28 12:44:32;;;;;;;12.20;4.50;;;24.20;1.00;;;;;;4973645;28;20226;-71
2022/10/28 12:47:35;;;;;;;21.02;4.80;;;24.20;1.00;;;;;;4974040;28;20636;-70
2022/10/28 12:50:04;;;;;;;11.25;4.30;;;24.30;99.90;;;;;;4983504;28;20171;-70
2022/10/28 12:52:35;;;;;;;10.30;5.00;;;24.50;1.00;;;;;;4973045;28;20208;-71
2022/10/28 12:55:12;;;;;;;11.20;4.00;;;24.40;1.00;;;;;;4973282;28;20168;-70
2022/10/28 12:57:42;;;;;;;16.38;5.00;;;24.30;99.90;;;;;;4978762;28;20183;-71
2022/10/28 13:00:17;;;;;;;13.80;5.25;;;24.40;1.00;;;;;;4973950;28;20214;-71
2022/10/28 13:03:00;;;;;;;14.30;4.43;;;24.70;1.00;;;;;;4972947;28;20211;-71
2022/10/28 13:05:52;;;;;;;8.50;4.20;;;24.50;1.00;;;;;;4973260;28;20175;-69